sensor_id;sensor_type;location;lat;lon;timestamp;P1;durP1;ratioP1;P2;durP2;ratioP2
35048;SDS011;21236;48.740;-3.446;2023-03-01T00:00:41;18.25;;;11.15;;
35048;SDS011;21236;48.740;-3.446;2023-03-01T00:03:11;18.60;;;11.25;;
35048;SDS011;21236;48.740;-3.446;2023-03-01T00:05:43;21.33;;;12.43;;
35048;SDS011;21236;48.740;-3.446;2023-03-01T00:08:09;20.40;;;13.30;;
35048;SDS011;21236;48.740;-3.446;2023-03-01T00:10:36;20.60;;;12.27;;
35048;SDS011;21236;48.740;-3.446;2023-03-01T00:13:02;22.75;;;13.85;;
35048;SDS011;21236;48.740;-3.446;2023-03-01T00:15:30;20.10;;;13.73;;
35048;SDS011;21236;48.740;-3.446;2023-03-01T00:17:56;24.77;;;14.98;;
35048;SDS011;21236;48.740;-3.446;2023-03-01T00:20:23;24.20;;;15.90;;
35048;SDS011;21236;48.740;-3.446;2023-03-01T00:22:49;22.23;;;15.43;;
35048;SDS011;21236;48.740;-3.446;2023-03-01T00:25:15;24.23;;;15.93;;
35048;SDS011;21236;48.740;-3.446;2023-03-01T00:27:41;34.30;;;17.10;;
35048;SDS011;21236;48.740;-3.446;2023-03-01T00:30:08;28.92;;;18.13;;
35048;SDS011;21236;48.740;-3.446;2023-03-01T00:32:34;29.02;;;17.45;;
35048;SDS011;21236;48.740;-3.446;2023-03-01T00:35:00;34.25;;;19.48;;
35048;SDS011;21236;48.740;-3.446;2023-03-01T00:37:27;28.95;;;19.30;;
35048;SDS011;21236;48.740;-3.446;2023-03-01T00:39:53;32.45;;;19.55;;
35048;SDS011;21236;48.740;-3.446;2023-03-01T00:42:20;32.22;;;20.80;;
35048;SDS011;21236;48.740;-3.446;2023-03-01T00:44:47;35.80;;;21.48;;
35048;SDS011;21236;48.740;-3.446;2023-03-01T00:47:13;35.15;;;21.25;;
35048;SDS011;21236;48.740;-3.446;2023-03-01T00:49:39;34.58;;;20.85;;
35048;SDS011;21236;48.740;-3.446;2023-03-01T00:52:05;35.33;;;23.05;;
35048;SDS011;21236;48.740;-3.446;2023-03-01T00:54:31;42.33;;;22.38;;
35048;SDS011;21236;48.740;-3.446;2023-03-01T00:56:57;36.72;;;22.33;;
35048;SDS011;21236;48.740;-3.446;2023-03-01T00:59:24;40.88;;;23.40;;
35048;SDS011;21236;48.740;-3.446;2023-03-01T01:01:50;41.47;;;23.48;;
35048;SDS011;21236;48.740;-3.446;2023-03-01T01:04:16;37.83;;;23.27;;
35048;SDS011;21236;48.740;-3.446;2023-03-01T01:06:43;37.08;;;23.73;;
35048;SDS011;21236;48.740;-3.446;2023-03-01T01:09:11;40.40;;;22.40;;
35048;SDS011;21236;48.740;-3.446;2023-03-01T01:11:42;41.55;;;23.80;;
35048;SDS011;21236;48.740;-3.446;2023-03-01T01:14:08;41.30;;;23.17;;
35048;SDS011;21236;48.740;-3.446;2023-03-01T01:16:35;44.05;;;25.17;;
35048;SDS011;21236;48.740;-3.446;2023-03-01T01:19:01;38.63;;;23.48;;
35048;SDS011;21236;48.740;-3.446;2023-03-01T01:21:27;39.80;;;23.58;;
35048;SDS011;21236;48.740;-3.446;2023-03-01T01:23:54;37.75;;;23.63;;
35048;SDS011;21236;48.740;-3.446;2023-03-01T01:26:28;41.83;;;22.85;;
35048;SDS011;21236;48.740;-3.446;2023-03-01T01:28:55;37.80;;;24.05;;
35048;SDS011;21236;48.740;-3.446;2023-03-01T01:31:22;42.17;;;24.83;;
35048;SDS011;21236;48.740;-3.446;2023-03-01T01:33:49;46.65;;;27.95;;
35048;SDS011;21236;48.740;-3.446;2023-03-01T01:36:15;41.95;;;25.05;;
35048;SDS011;21236;48.740;-3.446;2023-03-01T01:38:41;37.03;;;22.42;;
35048;SDS011;21236;48.740;-3.446;2023-03-01T01:41:08;41.92;;;24.27;;
35048;SDS011;21236;48.740;-3.446;2023-03-01T01:43:37;38.03;;;23.73;;
35048;SDS011;21236;48.740;-3.446;2023-03-01T01:46:12;35.08;;;21.33;;
35048;SDS011;21236;48.740;-3.446;2023-03-01T01:48:52;35.80;;;21.35;;
35048;SDS011;21236;48.740;-3.446;2023-03-01T01:51:21;32.50;;;20.52;;
35048;SDS011;21236;48.740;-3.446;2023-03-01T01:53:48;28.13;;;18.60;;
35048;SDS011;21236;48.740;-3.446;2023-03-01T01:56:16;35.55;;;19.52;;
35048;SDS011;21236;48.740;-3.446;2023-03-01T01:58:43;31.38;;;19.75;;
35048;SDS011;21236;48.740;-3.446;2023-03-01T02:01:09;36.08;;;19.65;;
35048;SDS011;21236;48.740;-3.446;2023-03-01T02:03:36;30.85;;;20.95;;
35048;SDS011;21236;48.740;-3.446;2023-03-01T02:06:12;29.95;;;20.02;;
35048;SDS011;21236;48.740;-3.446;2023-03-01T02:08:39;34.38;;;18.90;;
35048;SDS011;21236;48.740;-3.446;2023-03-01T02:11:06;29.67;;;18.50;;
35048;SDS011;21236;48.740;-3.446;2023-03-01T02:13:33;31.65;;;19.17;;
35048;SDS011;21236;48.740;-3.446;2023-03-01T02:16:02;33.35;;;19.63;;
35048;SDS011;21236;48.740;-3.446;2023-03-01T02:18:28;30.63;;;18.73;;
35048;SDS011;21236;48.740;-3.446;2023-03-01T02:23:22;31.35;;;20.15;;
35048;SDS011;21236;48.740;-3.446;2023-03-01T02:25:52;29.17;;;19.50;;
35048;SDS011;21236;48.740;-3.446;2023-03-01T02:28:42;31.55;;;20.88;;
35048;SDS011;21236;48.740;-3.446;2023-03-01T02:31:08;36.50;;;20.42;;
35048;SDS011;21236;48.740;-3.446;2023-03-01T02:33:53;33.85;;;20.98;;
35048;SDS011;21236;48.740;-3.446;2023-03-01T02:36:43;38.63;;;21.48;;
35048;SDS011;21236;48.740;-3.446;2023-03-01T02:39:08;39.90;;;21.52;;
35048;SDS011;21236;48.740;-3.446;2023-03-01T02:41:40;34.72;;;20.88;;
35048;SDS011;21236;48.740;-3.446;2023-03-01T02:44:08;32.63;;;20.02;;
35048;SDS011;21236;48.740;-3.446;2023-03-01T02:46:41;34.53;;;20.33;;
35048;SDS011;21236;48.740;-3.446;2023-03-01T02:56:37;30.42;;;19.45;;
35048;SDS011;21236;48.740;-3.446;2023-03-01T02:59:04;31.27;;;19.10;;
35048;SDS011;21236;48.740;-3.446;2023-03-01T03:01:31;32.47;;;19.23;;
35048;SDS011;21236;48.740;-3.446;2023-03-01T03:04:05;33.47;;;18.92;;
35048;SDS011;21236;48.740;-3.446;2023-03-01T03:06:32;30.08;;;19.92;;
35048;SDS011;21236;48.740;-3.446;2023-03-01T03:08:59;26.98;;;19.33;;
35048;SDS011;21236;48.740;-3.446;2023-03-01T03:11:25;29.67;;;19.27;;
35048;SDS011;21236;48.740;-3.446;2023-03-01T03:13:51;26.48;;;18.60;;
35048;SDS011;21236;48.740;-3.446;2023-03-01T03:16:18;31.15;;;17.90;;
35048;SDS011;21236;48.740;-3.446;2023-03-01T03:18:44;35.08;;;17.73;;
35048;SDS011;21236;48.740;-3.446;2023-03-01T03:21:11;33.63;;;18.55;;
35048;SDS011;21236;48.740;-3.446;2023-03-01T03:23:37;29.88;;;18.63;;
35048;SDS011;21236;48.740;-3.446;2023-03-01T03:26:04;26.85;;;17.35;;
35048;SDS011;21236;48.740;-3.446;2023-03-01T03:28:31;25.10;;;17.17;;
35048;SDS011;21236;48.740;-3.446;2023-03-01T03:30:57;28.35;;;16.90;;
35048;SDS011;21236;48.740;-3.446;2023-03-01T03:33:28;26.60;;;17.17;;
35048;SDS011;21236;48.740;-3.446;2023-03-01T03:35:55;23.80;;;16.13;;
35048;SDS011;21236;48.740;-3.446;2023-03-01T03:38:21;26.92;;;16.33;;
35048;SDS011;21236;48.740;-3.446;2023-03-01T03:43:20;29.05;;;16.30;;
35048;SDS011;21236;48.740;-3.446;2023-03-01T03:45:47;21.63;;;16.60;;
35048;SDS011;21236;48.740;-3.446;2023-03-01T03:48:13;25.48;;;15.50;;
35048;SDS011;21236;48.740;-3.446;2023-03-01T03:50:39;24.25;;;15.52;;
35048;SDS011;21236;48.740;-3.446;2023-03-01T03:53:08;21.98;;;14.68;;
35048;SDS011;21236;48.740;-3.446;2023-03-01T03:55:34;22.17;;;14.45;;
35048;SDS011;21236;48.740;-3.446;2023-03-01T03:58:04;24.48;;;15.90;;
35048;SDS011;21236;48.740;-3.446;2023-03-01T04:00:39;24.98;;;15.32;;
35048;SDS011;21236;48.740;-3.446;2023-03-01T04:03:05;23.15;;;15.10;;
35048;SDS011;21236;48.740;-3.446;2023-03-01T04:05:32;20.67;;;14.82;;
35048;SDS011;21236;48.740;-3.446;2023-03-01T04:07:58;24.10;;;14.10;;
35048;SDS011;21236;48.740;-3.446;2023-03-01T04:10:28;20.98;;;14.02;;
35048;SDS011;21236;48.740;-3.446;2023-03-01T04:12:55;21.63;;;14.73;;
35048;SDS011;21236;48.740;-3.446;2023-03-01T04:15:22;23.67;;;14.65;;
35048;SDS011;21236;48.740;-3.446;2023-03-01T04:17:49;21.63;;;15.52;;
35048;SDS011;21236;48.740;-3.446;2023-03-01T04:20:18;21.42;;;12.77;;
35048;SDS011;21236;48.740;-3.446;2023-03-01T04:22:50;20.42;;;14.32;;
35048;SDS011;21236;48.740;-3.446;2023-03-01T04:25:16;24.85;;;14.00;;
35048;SDS011;21236;48.740;-3.446;2023-03-01T04:27:43;25.13;;;14.60;;
35048;SDS011;21236;48.740;-3.446;2023-03-01T04:30:09;20.73;;;14.25;;
35048;SDS011;21236;48.740;-3.446;2023-03-01T04:32:35;19.13;;;13.02;;
35048;SDS011;21236;48.740;-3.446;2023-03-01T04:35:01;22.35;;;13.82;;
35048;SDS011;21236;48.740;-3.446;2023-03-01T04:37:27;21.00;;;13.73;;
35048;SDS011;21236;48.740;-3.446;2023-03-01T04:39:54;25.35;;;13.88;;
35048;SDS011;21236;48.740;-3.446;2023-03-01T04:42:21;23.83;;;14.50;;
35048;SDS011;21236;48.740;-3.446;2023-03-01T04:44:47;21.08;;;13.75;;
35048;SDS011;21236;48.740;-3.446;2023-03-01T04:47:16;20.83;;;14.65;;
35048;SDS011;21236;48.740;-3.446;2023-03-01T04:49:42;21.48;;;13.57;;
35048;SDS011;21236;48.740;-3.446;2023-03-01T04:52:08;22.27;;;13.25;;
35048;SDS011;21236;48.740;-3.446;2023-03-01T04:54:35;21.30;;;13.85;;
35048;SDS011;21236;48.740;-3.446;2023-03-01T04:57:01;22.25;;;13.80;;
35048;SDS011;21236;48.740;-3.446;2023-03-01T04:59:28;22.42;;;15.20;;
35048;SDS011;21236;48.740;-3.446;2023-03-01T05:01:54;21.55;;;13.45;;
35048;SDS011;21236;48.740;-3.446;2023-03-01T05:04:21;19.73;;;12.68;;
35048;SDS011;21236;48.740;-3.446;2023-03-01T05:06:47;20.23;;;13.88;;
35048;SDS011;21236;48.740;-3.446;2023-03-01T05:09:13;23.13;;;13.63;;
35048;SDS011;21236;48.740;-3.446;2023-03-01T05:11:39;22.00;;;12.70;;
35048;SDS011;21236;48.740;-3.446;2023-03-01T05:14:06;20.52;;;13.05;;
35048;SDS011;21236;48.740;-3.446;2023-03-01T05:16:32;20.63;;;13.10;;
35048;SDS011;21236;48.740;-3.446;2023-03-01T05:18:59;22.83;;;12.57;;
35048;SDS011;21236;48.740;-3.446;2023-03-01T05:21:25;18.05;;;12.40;;
35048;SDS011;21236;48.740;-3.446;2023-03-01T05:23:52;15.70;;;11.93;;
35048;SDS011;21236;48.740;-3.446;2023-03-01T05:26:18;19.20;;;13.20;;
35048;SDS011;21236;48.740;-3.446;2023-03-01T05:28:47;22.05;;;14.82;;
35048;SDS011;21236;48.740;-3.446;2023-03-01T05:31:13;19.50;;;13.80;;
35048;SDS011;21236;48.740;-3.446;2023-03-01T05:33:40;18.98;;;13.85;;
35048;SDS011;21236;48.740;-3.446;2023-03-01T05:36:07;23.08;;;14.30;;
35048;SDS011;21236;48.740;-3.446;2023-03-01T05:38:34;19.27;;;13.73;;
35048;SDS011;21236;48.740;-3.446;2023-03-01T05:41:01;20.05;;;13.73;;
35048;SDS011;21236;48.740;-3.446;2023-03-01T05:43:29;22.13;;;14.82;;
35048;SDS011;21236;48.740;-3.446;2023-03-01T05:45:57;20.90;;;13.73;;
35048;SDS011;21236;48.740;-3.446;2023-03-01T05:48:23;20.45;;;12.32;;
35048;SDS011;21236;48.740;-3.446;2023-03-01T05:50:49;22.55;;;12.80;;
35048;SDS011;21236;48.740;-3.446;2023-03-01T05:53:16;18.80;;;12.18;;
35048;SDS011;21236;48.740;-3.446;2023-03-01T05:55:44;22.75;;;12.35;;
35048;SDS011;21236;48.740;-3.446;2023-03-01T05:58:15;21.05;;;12.57;;
35048;SDS011;21236;48.740;-3.446;2023-03-01T06:00:42;19.38;;;12.10;;
35048;SDS011;21236;48.740;-3.446;2023-03-01T06:03:09;22.45;;;13.02;;
35048;SDS011;21236;48.740;-3.446;2023-03-01T06:05:36;19.33;;;12.98;;
35048;SDS011;21236;48.740;-3.446;2023-03-01T06:08:02;18.02;;;12.27;;
35048;SDS011;21236;48.740;-3.446;2023-03-01T06:10:29;16.58;;;11.98;;
35048;SDS011;21236;48.740;-3.446;2023-03-01T06:12:55;19.92;;;12.52;;
35048;SDS011;21236;48.740;-3.446;2023-03-01T06:15:22;20.35;;;12.52;;
35048;SDS011;21236;48.740;-3.446;2023-03-01T06:17:49;17.83;;;11.40;;
35048;SDS011;21236;48.740;-3.446;2023-03-01T06:20:16;21.38;;;12.40;;
35048;SDS011;21236;48.740;-3.446;2023-03-01T06:22:42;19.88;;;11.85;;
35048;SDS011;21236;48.740;-3.446;2023-03-01T06:25:09;18.90;;;11.43;;
35048;SDS011;21236;48.740;-3.446;2023-03-01T06:27:37;21.98;;;11.65;;
35048;SDS011;21236;48.740;-3.446;2023-03-01T06:30:03;18.50;;;11.43;;
35048;SDS011;21236;48.740;-3.446;2023-03-01T06:32:29;21.63;;;11.68;;
35048;SDS011;21236;48.740;-3.446;2023-03-01T06:34:56;16.98;;;11.20;;
35048;SDS011;21236;48.740;-3.446;2023-03-01T06:37:24;16.00;;;11.43;;
35048;SDS011;21236;48.740;-3.446;2023-03-01T06:39:50;17.00;;;11.98;;
35048;SDS011;21236;48.740;-3.446;2023-03-01T06:42:16;19.17;;;12.13;;
35048;SDS011;21236;48.740;-3.446;2023-03-01T06:44:43;20.00;;;12.27;;
35048;SDS011;21236;48.740;-3.446;2023-03-01T06:47:10;16.48;;;11.02;;
35048;SDS011;21236;48.740;-3.446;2023-03-01T06:49:37;18.08;;;11.63;;
35048;SDS011;21236;48.740;-3.446;2023-03-01T06:52:03;17.10;;;11.07;;
35048;SDS011;21236;48.740;-3.446;2023-03-01T06:54:29;16.80;;;11.55;;
35048;SDS011;21236;48.740;-3.446;2023-03-01T06:56:55;17.77;;;11.45;;
35048;SDS011;21236;48.740;-3.446;2023-03-01T06:59:21;20.20;;;11.52;;
35048;SDS011;21236;48.740;-3.446;2023-03-01T07:01:47;22.08;;;12.18;;
35048;SDS011;21236;48.740;-3.446;2023-03-01T07:04:13;24.05;;;12.73;;
35048;SDS011;21236;48.740;-3.446;2023-03-01T07:06:40;24.20;;;12.85;;
35048;SDS011;21236;48.740;-3.446;2023-03-01T07:09:06;23.77;;;12.13;;
35048;SDS011;21236;48.740;-3.446;2023-03-01T07:11:32;18.95;;;11.80;;
35048;SDS011;21236;48.740;-3.446;2023-03-01T07:13:58;19.27;;;11.85;;
35048;SDS011;21236;48.740;-3.446;2023-03-01T07:16:25;20.50;;;12.00;;
35048;SDS011;21236;48.740;-3.446;2023-03-01T07:18:51;22.20;;;12.65;;
35048;SDS011;21236;48.740;-3.446;2023-03-01T07:21:17;18.40;;;11.20;;
35048;SDS011;21236;48.740;-3.446;2023-03-01T07:23:43;22.67;;;12.55;;
35048;SDS011;21236;48.740;-3.446;2023-03-01T07:26:09;21.83;;;12.23;;
35048;SDS011;21236;48.740;-3.446;2023-03-01T07:28:35;22.17;;;12.90;;
35048;SDS011;21236;48.740;-3.446;2023-03-01T07:31:03;15.90;;;10.85;;
35048;SDS011;21236;48.740;-3.446;2023-03-01T07:33:30;20.85;;;13.05;;
35048;SDS011;21236;48.740;-3.446;2023-03-01T07:36:00;16.08;;;11.32;;
35048;SDS011;21236;48.740;-3.446;2023-03-01T07:38:26;19.65;;;11.65;;
35048;SDS011;21236;48.740;-3.446;2023-03-01T07:40:53;24.80;;;12.73;;
35048;SDS011;21236;48.740;-3.446;2023-03-01T07:43:19;20.15;;;12.27;;
35048;SDS011;21236;48.740;-3.446;2023-03-01T07:45:45;20.40;;;12.10;;
35048;SDS011;21236;48.740;-3.446;2023-03-01T07:48:12;20.50;;;13.32;;
35048;SDS011;21236;48.740;-3.446;2023-03-01T07:50:38;22.85;;;12.88;;
35048;SDS011;21236;48.740;-3.446;2023-03-01T07:53:04;20.70;;;12.63;;
35048;SDS011;21236;48.740;-3.446;2023-03-01T07:55:30;21.60;;;13.38;;
35048;SDS011;21236;48.740;-3.446;2023-03-01T07:57:56;22.30;;;12.20;;
35048;SDS011;21236;48.740;-3.446;2023-03-01T08:00:22;21.85;;;12.43;;
35048;SDS011;21236;48.740;-3.446;2023-03-01T08:02:48;22.50;;;13.13;;
35048;SDS011;21236;48.740;-3.446;2023-03-01T08:05:14;21.10;;;14.50;;
35048;SDS011;21236;48.740;-3.446;2023-03-01T08:07:41;21.27;;;13.30;;
35048;SDS011;21236;48.740;-3.446;2023-03-01T08:10:07;22.10;;;13.63;;
35048;SDS011;21236;48.740;-3.446;2023-03-01T08:12:33;25.20;;;14.00;;
35048;SDS011;21236;48.740;-3.446;2023-03-01T08:14:59;23.83;;;14.27;;
35048;SDS011;21236;48.740;-3.446;2023-03-01T08:17:25;25.92;;;14.32;;
35048;SDS011;21236;48.740;-3.446;2023-03-01T08:19:52;25.88;;;14.52;;
35048;SDS011;21236;48.740;-3.446;2023-03-01T08:22:18;24.63;;;14.05;;
35048;SDS011;21236;48.740;-3.446;2023-03-01T08:24:44;25.92;;;14.90;;
35048;SDS011;21236;48.740;-3.446;2023-03-01T08:27:10;26.23;;;14.35;;
35048;SDS011;21236;48.740;-3.446;2023-03-01T08:29:37;24.85;;;14.68;;
35048;SDS011;21236;48.740;-3.446;2023-03-01T08:32:03;29.58;;;15.10;;
35048;SDS011;21236;48.740;-3.446;2023-03-01T08:34:29;26.02;;;15.35;;
35048;SDS011;21236;48.740;-3.446;2023-03-01T08:36:56;29.77;;;15.60;;
35048;SDS011;21236;48.740;-3.446;2023-03-01T08:39:22;30.05;;;15.02;;
35048;SDS011;21236;48.740;-3.446;2023-03-01T08:41:48;27.63;;;15.93;;
35048;SDS011;21236;48.740;-3.446;2023-03-01T08:44:15;32.55;;;16.88;;
35048;SDS011;21236;48.740;-3.446;2023-03-01T08:46:46;37.28;;;18.98;;
35048;SDS011;21236;48.740;-3.446;2023-03-01T08:49:13;32.17;;;17.95;;
35048;SDS011;21236;48.740;-3.446;2023-03-01T08:51:40;35.97;;;17.92;;
35048;SDS011;21236;48.740;-3.446;2023-03-01T08:54:07;37.22;;;18.80;;
35048;SDS011;21236;48.740;-3.446;2023-03-01T08:56:33;31.08;;;17.25;;
35048;SDS011;21236;48.740;-3.446;2023-03-01T08:58:59;37.92;;;18.13;;
35048;SDS011;21236;48.740;-3.446;2023-03-01T09:01:25;31.92;;;19.25;;
35048;SDS011;21236;48.740;-3.446;2023-03-01T09:03:52;40.97;;;19.08;;
35048;SDS011;21236;48.740;-3.446;2023-03-01T09:06:18;32.80;;;18.30;;
35048;SDS011;21236;48.740;-3.446;2023-03-01T09:08:45;32.88;;;18.88;;
35048;SDS011;21236;48.740;-3.446;2023-03-01T09:11:12;33.03;;;19.33;;
35048;SDS011;21236;48.740;-3.446;2023-03-01T09:13:40;35.05;;;20.25;;
35048;SDS011;21236;48.740;-3.446;2023-03-01T09:16:06;34.85;;;19.27;;
35048;SDS011;21236;48.740;-3.446;2023-03-01T09:18:33;33.45;;;20.52;;
35048;SDS011;21236;48.740;-3.446;2023-03-01T09:21:09;37.03;;;20.23;;
35048;SDS011;21236;48.740;-3.446;2023-03-01T09:23:36;34.67;;;21.40;;
35048;SDS011;21236;48.740;-3.446;2023-03-01T09:26:04;40.15;;;21.00;;
35048;SDS011;21236;48.740;-3.446;2023-03-01T09:28:30;39.67;;;21.50;;
35048;SDS011;21236;48.740;-3.446;2023-03-01T09:31:00;42.47;;;21.00;;
35048;SDS011;21236;48.740;-3.446;2023-03-01T09:33:30;31.90;;;19.75;;
35048;SDS011;21236;48.740;-3.446;2023-03-01T09:36:00;36.17;;;21.42;;
35048;SDS011;21236;48.740;-3.446;2023-03-01T09:38:27;36.90;;;21.48;;
35048;SDS011;21236;48.740;-3.446;2023-03-01T09:40:53;41.75;;;22.42;;
35048;SDS011;21236;48.740;-3.446;2023-03-01T09:43:25;39.13;;;21.30;;
35048;SDS011;21236;48.740;-3.446;2023-03-01T09:45:52;33.38;;;20.55;;
35048;SDS011;21236;48.740;-3.446;2023-03-01T09:48:20;35.92;;;22.23;;
35048;SDS011;21236;48.740;-3.446;2023-03-01T09:50:48;41.00;;;22.30;;
35048;SDS011;21236;48.740;-3.446;2023-03-01T09:53:36;41.28;;;22.67;;
35048;SDS011;21236;48.740;-3.446;2023-03-01T10:01:02;44.58;;;22.25;;
35048;SDS011;21236;48.740;-3.446;2023-03-01T10:03:36;38.08;;;22.63;;
35048;SDS011;21236;48.740;-3.446;2023-03-01T10:06:23;35.85;;;21.52;;
35048;SDS011;21236;48.740;-3.446;2023-03-01T10:09:00;38.65;;;21.23;;
35048;SDS011;21236;48.740;-3.446;2023-03-01T10:11:32;38.78;;;23.17;;
35048;SDS011;21236;48.740;-3.446;2023-03-01T10:14:03;39.63;;;23.02;;
35048;SDS011;21236;48.740;-3.446;2023-03-01T10:16:38;36.85;;;21.80;;
35048;SDS011;21236;48.740;-3.446;2023-03-01T10:19:06;43.47;;;23.67;;
35048;SDS011;21236;48.740;-3.446;2023-03-01T10:21:32;39.78;;;23.35;;
35048;SDS011;21236;48.740;-3.446;2023-03-01T10:24:14;42.15;;;23.08;;
35048;SDS011;21236;48.740;-3.446;2023-03-01T10:29:11;37.78;;;20.88;;
35048;SDS011;21236;48.740;-3.446;2023-03-01T10:34:09;39.97;;;22.63;;
35048;SDS011;21236;48.740;-3.446;2023-03-01T10:36:36;40.58;;;23.08;;
35048;SDS011;21236;48.740;-3.446;2023-03-01T10:39:10;42.72;;;22.67;;
35048;SDS011;21236;48.740;-3.446;2023-03-01T10:41:37;42.78;;;23.17;;
35048;SDS011;21236;48.740;-3.446;2023-03-01T10:44:09;40.08;;;21.92;;
35048;SDS011;21236;48.740;-3.446;2023-03-01T10:46:58;41.15;;;23.52;;
35048;SDS011;21236;48.740;-3.446;2023-03-01T10:49:25;37.20;;;21.75;;
35048;SDS011;21236;48.740;-3.446;2023-03-01T10:51:52;37.95;;;21.10;;
35048;SDS011;21236;48.740;-3.446;2023-03-01T10:57:10;37.33;;;21.77;;
35048;SDS011;21236;48.740;-3.446;2023-03-01T10:59:37;40.55;;;21.52;;
35048;SDS011;21236;48.740;-3.446;2023-03-01T11:07:47;35.60;;;22.67;;
35048;SDS011;21236;48.740;-3.446;2023-03-01T11:10:17;39.83;;;21.17;;
35048;SDS011;21236;48.740;-3.446;2023-03-01T11:12:44;32.95;;;19.95;;
35048;SDS011;21236;48.740;-3.446;2023-03-01T11:15:19;34.95;;;20.55;;
35048;SDS011;21236;48.740;-3.446;2023-03-01T11:17:46;37.30;;;20.98;;
35048;SDS011;21236;48.740;-3.446;2023-03-01T11:22:41;35.50;;;20.30;;
35048;SDS011;21236;48.740;-3.446;2023-03-01T11:25:11;37.53;;;21.13;;
35048;SDS011;21236;48.740;-3.446;2023-03-01T11:27:40;31.13;;;20.00;;
35048;SDS011;21236;48.740;-3.446;2023-03-01T11:35:27;33.47;;;19.67;;
35048;SDS011;21236;48.740;-3.446;2023-03-01T11:38:15;32.60;;;19.77;;
35048;SDS011;21236;48.740;-3.446;2023-03-01T11:40:46;30.77;;;19.35;;
35048;SDS011;21236;48.740;-3.446;2023-03-01T11:46:02;37.63;;;18.92;;
35048;SDS011;21236;48.740;-3.446;2023-03-01T11:48:38;37.65;;;18.55;;
35048;SDS011;21236;48.740;-3.446;2023-03-01T11:51:09;33.92;;;18.75;;
35048;SDS011;21236;48.740;-3.446;2023-03-01T11:56:24;30.02;;;18.02;;
35048;SDS011;21236;48.740;-3.446;2023-03-01T12:06:50;35.58;;;21.55;;
35048;SDS011;21236;48.740;-3.446;2023-03-01T12:24:50;37.72;;;21.00;;
35048;SDS011;21236;48.740;-3.446;2023-03-01T12:29:59;31.27;;;19.15;;
35048;SDS011;21236;48.740;-3.446;2023-03-01T12:35:16;35.63;;;19.08;;
35048;SDS011;21236;48.740;-3.446;2023-03-01T12:50:12;35.08;;;20.77;;
35048;SDS011;21236;48.740;-3.446;2023-03-01T12:52:47;45.25;;;20.90;;
35048;SDS011;21236;48.740;-3.446;2023-03-01T12:55:34;36.03;;;20.10;;
35048;SDS011;21236;48.740;-3.446;2023-03-01T13:03:12;39.38;;;21.55;;
35048;SDS011;21236;48.740;-3.446;2023-03-01T13:05:45;35.92;;;20.05;;
35048;SDS011;21236;48.740;-3.446;2023-03-01T13:10:43;41.13;;;20.98;;
35048;SDS011;21236;48.740;-3.446;2023-03-01T13:13:15;36.83;;;18.88;;
35048;SDS011;21236;48.740;-3.446;2023-03-01T13:15:44;35.13;;;18.80;;
35048;SDS011;21236;48.740;-3.446;2023-03-01T13:23:23;30.63;;;18.30;;
35048;SDS011;21236;48.740;-3.446;2023-03-01T13:26:06;38.30;;;19.50;;
35048;SDS011;21236;48.740;-3.446;2023-03-01T13:33:49;40.90;;;18.40;;
35048;SDS011;21236;48.740;-3.446;2023-03-01T13:46:46;29.45;;;18.65;;
35048;SDS011;21236;48.740;-3.446;2023-03-01T13:49:14;27.27;;;16.58;;
35048;SDS011;21236;48.740;-3.446;2023-03-01T13:51:41;31.60;;;19.25;;
35048;SDS011;21236;48.740;-3.446;2023-03-01T13:54:12;32.58;;;17.40;;
35048;SDS011;21236;48.740;-3.446;2023-03-01T13:56:38;29.52;;;17.52;;
35048;SDS011;21236;48.740;-3.446;2023-03-01T13:59:06;26.38;;;16.17;;
35048;SDS011;21236;48.740;-3.446;2023-03-01T14:06:51;32.65;;;17.88;;
35048;SDS011;21236;48.740;-3.446;2023-03-01T14:09:18;33.78;;;17.83;;
35048;SDS011;21236;48.740;-3.446;2023-03-01T14:14:28;29.80;;;18.38;;
35048;SDS011;21236;48.740;-3.446;2023-03-01T14:19:40;38.88;;;19.05;;
35048;SDS011;21236;48.740;-3.446;2023-03-01T14:25:14;33.30;;;19.40;;
35048;SDS011;21236;48.740;-3.446;2023-03-01T14:27:42;30.15;;;17.77;;
35048;SDS011;21236;48.740;-3.446;2023-03-01T14:30:21;34.67;;;19.10;;
35048;SDS011;21236;48.740;-3.446;2023-03-01T14:32:53;32.88;;;18.42;;
35048;SDS011;21236;48.740;-3.446;2023-03-01T14:35:20;29.77;;;18.13;;
35048;SDS011;21236;48.740;-3.446;2023-03-01T14:37:47;30.50;;;17.75;;
35048;SDS011;21236;48.740;-3.446;2023-03-01T14:40:47;34.03;;;18.67;;
35048;SDS011;21236;48.740;-3.446;2023-03-01T14:43:11;28.80;;;18.42;;
35048;SDS011;21236;48.740;-3.446;2023-03-01T14:45:37;30.70;;;17.73;;
35048;SDS011;21236;48.740;-3.446;2023-03-01T14:48:04;30.85;;;17.55;;
35048;SDS011;21236;48.740;-3.446;2023-03-01T14:50:32;28.90;;;17.90;;
35048;SDS011;21236;48.740;-3.446;2023-03-01T14:53:01;35.75;;;17.70;;
35048;SDS011;21236;48.740;-3.446;2023-03-01T14:55:37;28.95;;;18.02;;
35048;SDS011;21236;48.740;-3.446;2023-03-01T14:58:09;28.27;;;16.90;;
35048;SDS011;21236;48.740;-3.446;2023-03-01T15:00:36;30.05;;;17.90;;
35048;SDS011;21236;48.740;-3.446;2023-03-01T15:03:06;25.80;;;17.45;;
35048;SDS011;21236;48.740;-3.446;2023-03-01T15:05:38;29.08;;;17.42;;
35048;SDS011;21236;48.740;-3.446;2023-03-01T15:08:05;29.75;;;17.60;;
35048;SDS011;21236;48.740;-3.446;2023-03-01T15:10:34;28.38;;;16.95;;
35048;SDS011;21236;48.740;-3.446;2023-03-01T15:13:13;31.52;;;17.67;;
35048;SDS011;21236;48.740;-3.446;2023-03-01T15:15:43;29.55;;;16.65;;
35048;SDS011;21236;48.740;-3.446;2023-03-01T15:18:18;24.10;;;15.30;;
35048;SDS011;21236;48.740;-3.446;2023-03-01T15:20:45;25.83;;;16.10;;
35048;SDS011;21236;48.740;-3.446;2023-03-01T15:23:33;28.30;;;15.88;;
35048;SDS011;21236;48.740;-3.446;2023-03-01T15:25:58;26.85;;;16.15;;
35048;SDS011;21236;48.740;-3.446;2023-03-01T15:28:33;28.25;;;16.27;;
35048;SDS011;21236;48.740;-3.446;2023-03-01T15:33:31;26.75;;;15.70;;
35048;SDS011;21236;48.740;-3.446;2023-03-01T15:36:02;28.58;;;14.85;;
35048;SDS011;21236;48.740;-3.446;2023-03-01T15:38:36;26.42;;;15.45;;
35048;SDS011;21236;48.740;-3.446;2023-03-01T15:43:52;36.42;;;16.42;;
35048;SDS011;21236;48.740;-3.446;2023-03-01T15:46:22;23.98;;;15.40;;
35048;SDS011;21236;48.740;-3.446;2023-03-01T15:48:51;29.23;;;16.35;;
35048;SDS011;21236;48.740;-3.446;2023-03-01T15:51:19;25.67;;;16.23;;
35048;SDS011;21236;48.740;-3.446;2023-03-01T15:53:49;26.40;;;15.40;;
35048;SDS011;21236;48.740;-3.446;2023-03-01T15:56:16;30.02;;;16.38;;
35048;SDS011;21236;48.740;-3.446;2023-03-01T15:58:42;27.73;;;16.35;;
35048;SDS011;21236;48.740;-3.446;2023-03-01T16:01:10;27.25;;;15.80;;
35048;SDS011;21236;48.740;-3.446;2023-03-01T16:03:37;27.52;;;15.85;;
35048;SDS011;21236;48.740;-3.446;2023-03-01T16:06:03;26.52;;;15.63;;
35048;SDS011;21236;48.740;-3.446;2023-03-01T16:08:30;24.42;;;14.35;;
35048;SDS011;21236;48.740;-3.446;2023-03-01T16:10:56;29.33;;;13.60;;
35048;SDS011;21236;48.740;-3.446;2023-03-01T16:13:22;22.80;;;13.07;;
35048;SDS011;21236;48.740;-3.446;2023-03-01T16:15:50;24.33;;;13.65;;
35048;SDS011;21236;48.740;-3.446;2023-03-01T16:18:16;19.52;;;12.65;;
35048;SDS011;21236;48.740;-3.446;2023-03-01T16:20:42;24.88;;;13.25;;
35048;SDS011;21236;48.740;-3.446;2023-03-01T16:23:09;23.63;;;12.35;;
35048;SDS011;21236;48.740;-3.446;2023-03-01T16:25:36;20.83;;;12.48;;
35048;SDS011;21236;48.740;-3.446;2023-03-01T16:28:03;23.85;;;12.40;;